EGPD/ABZ METAR and TAF weather

Enter ICAO airport designator
Station Type Date Time Source
EGPD METAR 2019/08/19 07:50 UTC NOAA

EGPD 190750Z 25008KT 210V280 9999 FEW033 15/10 Q1000


Station Type Date Time Source
EGPD Decoded METAR 2019/08/19 07:50 UTC NOAA

Station name not available
Aug 19, 2019 - 03:50 AM EDT / 2019.08.19 0750 UTC
Wind: from the WSW (250 degrees) at 9 MPH (8 KT) (direction variable):0
Visibility: greater than 7 mile(s):0
Sky conditions: mostly clear
Temperature: 59 F (15 C)
Dew Point: 50 F (10 C)
Relative Humidity: 72%
Pressure (altimeter): 29.53 in. Hg (1000 hPa)
ob: EGPD 190750Z 25008KT 210V280 9999 FEW033 15/10 Q1000
cycle: 8

Station Type Date Time Source
EGPD TAF 2019/08/19 06:09 UTC NOAA

TAF EGPD 190458Z 1906/2006 24009KT 9999 SCT035 PROB30
TEMPO 1910/1921 7000 SHRA

Example: see airport list